createdAt,value
2022-07-31T00:00:15.822Z,53.52
2022-07-31T00:02:42.371Z,53.64
2022-07-31T00:05:09.439Z,53.60
2022-07-31T00:07:35.958Z,53.84
2022-07-31T00:10:04.938Z,53.96
2022-07-31T00:12:31.803Z,54.34
2022-07-31T00:14:58.314Z,54.74
2022-07-31T00:17:24.833Z,54.90
2022-07-31T00:19:51.324Z,54.86
2022-07-31T00:22:17.812Z,54.51
2022-07-31T00:24:44.295Z,54.59
2022-07-31T00:27:11.114Z,54.40
2022-07-31T00:29:38.572Z,54.43
2022-07-31T00:32:06.131Z,54.46
2022-07-31T00:34:32.903Z,54.67
2022-07-31T00:36:59.478Z,54.85
2022-07-31T00:39:26.591Z,54.97
2022-07-31T00:41:54.910Z,55.20
2022-07-31T00:44:21.474Z,55.51
2022-07-31T00:46:48.306Z,55.39
2022-07-31T00:49:15.861Z,55.21
2022-07-31T00:51:42.531Z,55.06
2022-07-31T00:54:10.433Z,55.41
2022-07-31T00:56:43.965Z,55.73
2022-07-31T00:59:10.502Z,55.95
2022-07-31T01:01:37.051Z,56.16
2022-07-31T01:04:03.679Z,56.06
2022-07-31T01:06:30.271Z,55.85
2022-07-31T01:08:56.787Z,55.85
2022-07-31T01:11:38.990Z,55.72
2022-07-31T01:14:08.719Z,55.91
2022-07-31T01:16:46.682Z,56.31
2022-07-31T01:19:37.890Z,56.41
2022-07-31T01:22:33.170Z,56.61
2022-07-31T01:25:32.079Z,56.86
2022-07-31T01:28:10.673Z,56.95
2022-07-31T01:31:04.995Z,56.91
2022-07-31T01:34:08.150Z,57.31
2022-07-31T01:36:41.984Z,56.86
2022-07-31T01:39:08.540Z,57.40
2022-07-31T01:41:47.376Z,57.76
2022-07-31T01:44:18.941Z,57.91
2022-07-31T01:46:48.005Z,57.84
2022-07-31T01:49:19.108Z,57.36
2022-07-31T01:51:47.983Z,57.90
2022-07-31T01:54:18.241Z,58.49
2022-07-31T01:56:49.126Z,58.80
2022-07-31T01:59:22.549Z,58.97
2022-07-31T02:01:53.294Z,58.74
2022-07-31T02:04:21.472Z,58.51
2022-07-31T02:06:50.855Z,58.56
2022-07-31T02:09:22.364Z,58.81
2022-07-31T02:11:54.575Z,59.61
2022-07-31T02:14:24.031Z,59.65
2022-07-31T02:16:50.958Z,59.29
2022-07-31T02:19:21.209Z,59.44
2022-07-31T02:21:49.915Z,59.47
2022-07-31T02:24:17.507Z,59.55
2022-07-31T02:26:46.456Z,59.72
2022-07-31T02:29:19.243Z,59.33
2022-07-31T02:32:02.818Z,59.43
2022-07-31T02:34:32.391Z,59.44
2022-07-31T02:37:02.333Z,59.80
2022-07-31T02:39:32.479Z,60.21
2022-07-31T02:42:02.048Z,60.15
2022-07-31T02:44:32.362Z,60.26
2022-07-31T02:47:02.365Z,60.34
2022-07-31T02:49:30.832Z,60.51
2022-07-31T02:51:58.607Z,60.31
2022-07-31T02:54:26.344Z,60.05
2022-07-31T02:56:54.063Z,59.97
2022-07-31T02:59:22.151Z,59.64
2022-07-31T03:01:48.730Z,59.95
2022-07-31T03:04:15.538Z,60.35
2022-07-31T03:06:42.121Z,60.45
2022-07-31T03:09:08.750Z,60.69
2022-07-31T03:11:36.022Z,60.71
2022-07-31T03:14:05.320Z,61.00
2022-07-31T03:16:34.971Z,61.08
2022-07-31T03:19:04.039Z,61.67
2022-07-31T03:21:31.776Z,61.77
2022-07-31T03:24:00.408Z,61.30
2022-07-31T03:26:30.256Z,61.53
2022-07-31T03:29:00.708Z,61.34
2022-07-31T03:31:27.275Z,61.64
2022-07-31T03:33:53.795Z,61.65
2022-07-31T03:36:20.302Z,61.69
2022-07-31T03:38:50.406Z,61.44
2022-07-31T03:41:17.327Z,61.83
2022-07-31T03:43:48.079Z,61.79
2022-07-31T03:46:22.055Z,61.62
2022-07-31T03:48:52.340Z,61.42
2022-07-31T03:51:19.953Z,61.29
2022-07-31T03:53:47.952Z,61.56
2022-07-31T03:56:16.149Z,61.81
2022-07-31T03:58:43.307Z,61.92
2022-07-31T04:01:16.890Z,61.43
2022-07-31T04:03:47.480Z,61.39
2022-07-31T04:06:14.040Z,61.42
2022-07-31T04:08:40.760Z,60.82
2022-07-31T04:11:07.329Z,60.95
2022-07-31T04:13:33.874Z,60.77
2022-07-31T04:16:00.372Z,61.23
2022-07-31T04:18:26.999Z,61.00
2022-07-31T04:20:53.515Z,61.27
2022-07-31T04:23:20.026Z,60.99
2022-07-31T04:25:48.899Z,61.17
2022-07-31T04:28:15.420Z,60.93
2022-07-31T04:30:41.939Z,60.84
2022-07-31T04:33:08.447Z,60.87
2022-07-31T04:35:35.315Z,61.24
2022-07-31T04:38:02.169Z,61.20
2022-07-31T04:40:28.723Z,61.48
2022-07-31T04:42:55.352Z,61.70
2022-07-31T04:45:21.965Z,61.73
2022-07-31T04:47:48.632Z,61.55
2022-07-31T04:50:15.190Z,61.12
2022-07-31T04:52:41.721Z,60.82
2022-07-31T04:55:08.875Z,60.56
2022-07-31T04:57:35.415Z,60.52
2022-07-31T05:00:02.079Z,60.55
2022-07-31T05:02:28.847Z,60.59
2022-07-31T05:04:56.850Z,60.33
2022-07-31T05:07:24.110Z,60.09
2022-07-31T05:09:54.198Z,60.30
2022-07-31T05:12:23.000Z,60.17
2022-07-31T05:14:49.542Z,60.09
2022-07-31T05:17:16.055Z,59.92
2022-07-31T05:19:42.579Z,59.76
2022-07-31T05:22:09.531Z,60.03
2022-07-31T05:24:36.267Z,60.13
2022-07-31T05:27:03.884Z,59.94
2022-07-31T05:29:32.995Z,60.26
2022-07-31T05:32:01.088Z,59.98
2022-07-31T05:34:31.164Z,59.78
2022-07-31T05:37:01.380Z,59.73
2022-07-31T05:39:29.020Z,59.64
2022-07-31T05:41:55.559Z,59.47
2022-07-31T05:44:24.895Z,59.55
2022-07-31T05:49:18.750Z,59.79
2022-07-31T05:51:46.667Z,60.05
2022-07-31T05:54:13.634Z,59.90
2022-07-31T05:56:40.121Z,59.74
2022-07-31T05:59:06.868Z,59.54
2022-07-31T06:01:36.564Z,59.27
2022-07-31T06:04:03.323Z,59.12
2022-07-31T06:06:29.852Z,58.94
2022-07-31T06:09:00.612Z,58.90
2022-07-31T06:11:30.086Z,58.69
2022-07-31T06:13:56.583Z,58.41
2022-07-31T06:16:23.067Z,58.44
2022-07-31T06:18:49.575Z,58.36
2022-07-31T06:23:41.583Z,58.35
2022-07-31T06:26:08.147Z,58.15
2022-07-31T06:28:48.881Z,57.81
2022-07-31T06:31:20.885Z,57.84
2022-07-31T06:33:49.448Z,57.83
2022-07-31T06:36:17.559Z,57.62
2022-07-31T06:38:44.098Z,57.42
2022-07-31T06:41:10.580Z,57.31
2022-07-31T06:43:37.450Z,57.46
2022-07-31T06:46:03.948Z,57.55
2022-07-31T06:48:30.433Z,57.68
2022-07-31T06:51:27.888Z,57.59
2022-07-31T06:53:43.522Z,57.63
2022-07-31T06:56:10.091Z,57.67
2022-07-31T06:58:36.620Z,57.56
2022-07-31T07:01:03.251Z,57.02
2022-07-31T07:03:29.798Z,56.82
2022-07-31T07:05:56.316Z,56.68
2022-07-31T07:08:23.673Z,56.51
2022-07-31T07:10:50.188Z,56.28
2022-07-31T07:13:16.742Z,55.88
2022-07-31T07:15:43.235Z,55.46
2022-07-31T07:18:09.727Z,55.19
2022-07-31T07:20:36.247Z,55.00
2022-07-31T07:23:02.992Z,55.04
2022-07-31T07:25:29.523Z,54.83
2022-07-31T07:27:56.727Z,54.66
2022-07-31T07:30:25.016Z,54.44
2022-07-31T07:32:51.514Z,54.35
2022-07-31T07:35:18.141Z,54.21
2022-07-31T07:37:44.641Z,54.48
2022-07-31T07:40:11.711Z,54.06
2022-07-31T07:42:38.233Z,53.91
2022-07-31T07:45:07.847Z,53.11
2022-07-31T07:48:05.735Z,52.62
2022-07-31T07:50:22.737Z,52.25
2022-07-31T07:52:53.980Z,51.43
2022-07-31T07:55:20.588Z,50.71
2022-07-31T07:57:47.144Z,50.31
2022-07-31T08:00:14.588Z,50.01
2022-07-31T08:02:42.531Z,49.74
2022-07-31T08:05:09.760Z,49.78
2022-07-31T08:07:42.022Z,49.54
2022-07-31T08:10:10.268Z,49.28
2022-07-31T08:12:37.766Z,49.57
2022-07-31T08:15:05.628Z,49.46
2022-07-31T08:17:32.169Z,49.74
2022-07-31T08:19:58.699Z,49.73
2022-07-31T08:22:25.266Z,49.43
2022-07-31T08:24:51.841Z,49.48
2022-07-31T08:27:24.268Z,49.21
2022-07-31T08:30:07.347Z,49.05
2022-07-31T08:32:33.943Z,48.83
2022-07-31T08:35:00.541Z,48.26
2022-07-31T08:38:01.290Z,48.29
2022-07-31T08:40:13.779Z,48.39
2022-07-31T08:42:40.287Z,49.09
2022-07-31T08:45:08.913Z,48.85
2022-07-31T08:47:36.549Z,49.07
2022-07-31T08:50:06.126Z,49.58
2022-07-31T08:52:35.088Z,49.46
2022-07-31T08:55:08.014Z,49.04
2022-07-31T08:57:36.078Z,49.18
2022-07-31T09:00:07.427Z,48.91
2022-07-31T09:02:34.075Z,48.54
2022-07-31T09:05:00.659Z,49.05
2022-07-31T09:07:27.219Z,48.58
2022-07-31T09:09:53.734Z,48.47
2022-07-31T09:12:33.260Z,48.06
2022-07-31T09:15:01.413Z,48.00
2022-07-31T09:17:35.647Z,48.12
2022-07-31T09:20:04.343Z,48.04
2022-07-31T09:22:31.939Z,48.30
2022-07-31T09:25:12.740Z,47.31
2022-07-31T09:27:40.043Z,47.26
2022-07-31T09:30:08.824Z,47.23
2022-07-31T09:32:35.355Z,47.27
2022-07-31T09:35:15.355Z,46.89
2022-07-31T09:37:47.499Z,46.21
2022-07-31T09:40:14.351Z,46.67
2022-07-31T09:42:46.024Z,46.19
2022-07-31T09:45:23.887Z,46.01
2022-07-31T09:48:12.572Z,45.00
2022-07-31T09:50:54.612Z,44.78
2022-07-31T09:53:22.380Z,44.78
2022-07-31T09:55:57.746Z,44.79
2022-07-31T09:58:24.821Z,45.01
2022-07-31T10:00:53.809Z,45.08
2022-07-31T10:03:22.300Z,44.77
2022-07-31T10:05:49.611Z,44.63
2022-07-31T10:08:17.935Z,44.26
2022-07-31T10:10:46.510Z,43.92
2022-07-31T10:13:19.221Z,44.18
2022-07-31T10:15:48.480Z,43.96
2022-07-31T10:18:21.020Z,43.60
2022-07-31T10:21:06.309Z,42.80
2022-07-31T10:23:40.553Z,42.49
2022-07-31T10:26:07.655Z,43.23
2022-07-31T10:28:38.053Z,43.38
2022-07-31T10:31:06.048Z,42.84
2022-07-31T10:33:44.116Z,42.93
2022-07-31T10:36:23.782Z,42.49
2022-07-31T10:39:01.679Z,42.00
2022-07-31T10:41:59.571Z,41.79
2022-07-31T10:44:38.673Z,42.21
2022-07-31T10:47:14.019Z,41.46
2022-07-31T10:49:46.228Z,41.75
2022-07-31T10:52:12.847Z,42.07
2022-07-31T10:54:45.687Z,41.52
2022-07-31T10:57:55.970Z,41.27
2022-07-31T11:00:28.326Z,42.02
2022-07-31T11:02:57.113Z,41.93
2022-07-31T11:05:24.726Z,41.62
2022-07-31T11:08:20.867Z,40.86
2022-07-31T11:10:56.150Z,41.29
2022-07-31T11:13:33.588Z,41.27
2022-07-31T11:16:06.284Z,40.91
2022-07-31T11:18:34.631Z,40.72
2022-07-31T11:21:22.797Z,40.29
2022-07-31T11:23:56.305Z,40.41
2022-07-31T11:26:33.760Z,40.14
2022-07-31T11:30:00.560Z,39.86
2022-07-31T11:32:15.018Z,39.71
2022-07-31T11:34:55.590Z,39.55
2022-07-31T11:37:56.409Z,39.56
2022-07-31T11:40:22.174Z,40.08
2022-07-31T11:43:10.430Z,39.94
2022-07-31T11:45:50.378Z,39.35
2022-07-31T11:48:19.678Z,39.83
2022-07-31T11:50:48.734Z,39.58
2022-07-31T11:53:16.202Z,39.37
2022-07-31T11:56:00.789Z,39.00
2022-07-31T11:58:28.994Z,39.38
2022-07-31T12:01:00.025Z,39.58
2022-07-31T12:03:38.780Z,38.42
2022-07-31T12:06:09.925Z,39.28
2022-07-31T12:08:37.675Z,39.69
2022-07-31T12:11:09.329Z,39.77
2022-07-31T12:13:37.371Z,39.52
2022-07-31T12:16:10.521Z,39.33
2022-07-31T12:18:59.121Z,39.29
2022-07-31T12:21:34.923Z,38.82
2022-07-31T12:24:03.075Z,39.03
2022-07-31T12:26:33.119Z,38.04
2022-07-31T12:29:05.594Z,37.28
2022-07-31T12:31:52.064Z,37.16
2022-07-31T12:34:42.400Z,36.92
2022-07-31T12:37:19.030Z,37.51
2022-07-31T12:40:00.905Z,37.74
2022-07-31T12:42:39.300Z,37.87
2022-07-31T12:45:19.947Z,37.76
2022-07-31T12:47:52.169Z,38.03
2022-07-31T12:50:21.358Z,37.95
2022-07-31T12:52:48.075Z,38.45
2022-07-31T12:55:17.137Z,38.45
2022-07-31T12:57:51.143Z,38.00
2022-07-31T13:00:24.782Z,38.29
2022-07-31T13:02:57.244Z,38.22
2022-07-31T13:05:25.254Z,37.90
2022-07-31T13:07:52.464Z,37.92
2022-07-31T13:10:23.657Z,37.87
2022-07-31T13:12:51.761Z,37.62
2022-07-31T13:15:20.839Z,36.80
2022-07-31T13:17:50.780Z,36.88
2022-07-31T13:20:19.096Z,37.16
2022-07-31T13:22:45.717Z,37.31
2022-07-31T13:25:12.544Z,36.57
2022-07-31T13:27:39.449Z,36.98
2022-07-31T13:30:09.667Z,36.82
2022-07-31T13:32:36.715Z,37.00
2022-07-31T13:35:27.880Z,36.51
2022-07-31T13:37:51.251Z,36.48
2022-07-31T13:40:19.554Z,36.02
2022-07-31T13:42:46.117Z,36.06
2022-07-31T13:45:12.647Z,36.11
2022-07-31T13:47:51.244Z,35.88
2022-07-31T13:50:19.667Z,35.49
2022-07-31T13:52:46.230Z,35.72
2022-07-31T13:55:12.842Z,35.10
2022-07-31T13:57:39.350Z,35.00
2022-07-31T14:00:07.315Z,35.28
2022-07-31T14:02:33.973Z,35.63
2022-07-31T14:05:00.551Z,35.63
2022-07-31T14:07:45.347Z,35.75
2022-07-31T14:10:19.924Z,36.04
2022-07-31T14:12:47.177Z,35.55
2022-07-31T14:15:13.841Z,35.86
2022-07-31T14:17:40.476Z,35.92
2022-07-31T14:20:07.801Z,35.97
2022-07-31T14:22:34.329Z,35.99
2022-07-31T14:25:00.954Z,36.07
2022-07-31T14:27:27.580Z,36.18
2022-07-31T14:29:54.152Z,36.14
2022-07-31T14:32:22.031Z,35.80
2022-07-31T14:34:51.389Z,35.75
2022-07-31T14:37:18.162Z,35.56
2022-07-31T14:39:44.707Z,36.10
2022-07-31T14:42:12.255Z,36.10
2022-07-31T14:44:41.760Z,35.81
2022-07-31T14:47:11.048Z,35.99
2022-07-31T14:50:06.881Z,35.78
2022-07-31T14:52:26.707Z,36.37
2022-07-31T14:54:54.189Z,36.00
2022-07-31T14:57:22.363Z,35.69
2022-07-31T14:59:50.255Z,36.26
2022-07-31T15:02:21.790Z,35.78
2022-07-31T15:04:49.085Z,35.98
2022-07-31T15:07:36.654Z,35.84
2022-07-31T15:10:04.878Z,35.96
2022-07-31T15:12:31.788Z,36.11
2022-07-31T15:14:58.497Z,36.12
2022-07-31T15:17:25.256Z,35.87
2022-07-31T15:19:51.901Z,36.46
2022-07-31T15:22:19.200Z,36.33
2022-07-31T15:24:48.985Z,36.74
2022-07-31T15:27:18.810Z,36.83
2022-07-31T15:30:04.506Z,36.52
2022-07-31T15:32:32.599Z,36.63
2022-07-31T15:34:59.221Z,36.96
2022-07-31T15:37:25.698Z,37.26
2022-07-31T15:40:01.572Z,37.51
2022-07-31T15:42:33.182Z,37.77
2022-07-31T15:44:59.730Z,37.95
2022-07-31T15:47:26.387Z,38.22
2022-07-31T15:49:52.916Z,38.50
2022-07-31T15:52:19.780Z,38.60
2022-07-31T15:54:47.446Z,38.88
2022-07-31T15:57:23.116Z,39.12
2022-07-31T15:59:54.121Z,39.26
2022-07-31T16:02:21.639Z,39.42
2022-07-31T16:04:52.755Z,39.42
2022-07-31T16:08:29.796Z,39.46
2022-07-31T16:10:17.678Z,39.63
2022-07-31T16:12:48.609Z,39.49
2022-07-31T16:15:16.931Z,39.51
2022-07-31T16:17:44.627Z,39.67
2022-07-31T16:20:26.379Z,39.66
2022-07-31T16:23:01.367Z,39.82
2022-07-31T16:25:32.157Z,39.82
2022-07-31T16:28:01.555Z,40.54
2022-07-31T16:30:28.121Z,40.80
2022-07-31T16:32:54.957Z,40.98
2022-07-31T16:35:22.025Z,40.77
2022-07-31T16:37:52.376Z,41.31
2022-07-31T16:40:28.364Z,41.25
2022-07-31T16:43:00.822Z,41.62
2022-07-31T16:45:28.472Z,41.68
2022-07-31T16:47:54.967Z,41.61
2022-07-31T16:50:21.815Z,41.68
2022-07-31T16:52:52.637Z,41.60
2022-07-31T16:55:46.209Z,41.92
2022-07-31T16:58:11.758Z,42.23
2022-07-31T17:00:39.883Z,42.39
2022-07-31T17:03:06.738Z,42.45
2022-07-31T17:05:53.313Z,42.64
2022-07-31T17:08:19.803Z,42.64
2022-07-31T17:10:47.115Z,42.79
2022-07-31T17:13:15.643Z,43.09
2022-07-31T17:15:42.184Z,42.88
2022-07-31T17:18:08.750Z,43.08
2022-07-31T17:20:37.039Z,43.03
2022-07-31T17:23:09.410Z,43.39
2022-07-31T17:25:35.922Z,43.34
2022-07-31T17:28:02.434Z,43.37
2022-07-31T17:30:28.976Z,43.36
2022-07-31T17:32:55.564Z,43.67
2022-07-31T17:35:22.289Z,43.90
2022-07-31T17:37:48.775Z,43.88
2022-07-31T17:40:40.873Z,43.84
2022-07-31T17:43:01.711Z,44.31
2022-07-31T17:45:50.732Z,44.22
2022-07-31T17:48:19.738Z,45.14
2022-07-31T17:50:46.296Z,44.33
2022-07-31T17:53:12.820Z,44.45
2022-07-31T17:55:42.473Z,44.30
2022-07-31T17:58:09.126Z,44.28
2022-07-31T18:00:35.780Z,43.97
2022-07-31T18:03:02.344Z,44.24
2022-07-31T18:05:29.254Z,44.09
2022-07-31T18:07:55.898Z,44.20
2022-07-31T18:10:32.650Z,44.33
2022-07-31T18:13:09.461Z,44.37
2022-07-31T18:15:36.173Z,44.55
2022-07-31T18:18:02.929Z,44.40
2022-07-31T18:20:29.482Z,44.77
2022-07-31T18:22:56.062Z,44.50
2022-07-31T18:25:22.817Z,44.78
2022-07-31T18:27:50.251Z,44.44
2022-07-31T18:30:16.780Z,44.69
2022-07-31T18:32:44.043Z,44.60
2022-07-31T18:35:11.027Z,44.67
2022-07-31T18:37:37.633Z,44.97
2022-07-31T18:40:06.122Z,45.11
2022-07-31T18:42:32.742Z,45.28
2022-07-31T18:44:59.286Z,45.43
2022-07-31T18:47:26.567Z,45.56
2022-07-31T18:51:00.587Z,45.62
2022-07-31T18:52:39.692Z,46.88
2022-07-31T18:55:07.154Z,46.49
2022-07-31T18:57:33.704Z,46.38
2022-07-31T19:00:00.365Z,46.71
2022-07-31T19:02:28.045Z,46.83
2022-07-31T19:04:54.836Z,47.08
2022-07-31T19:07:21.379Z,46.84
2022-07-31T19:09:47.970Z,47.30
2022-07-31T19:12:14.721Z,47.22
2022-07-31T19:14:41.671Z,47.68
2022-07-31T19:17:08.603Z,47.95
2022-07-31T19:19:55.087Z,47.82
2022-07-31T19:22:23.803Z,47.94
2022-07-31T19:24:51.555Z,48.01
2022-07-31T19:27:19.692Z,48.02
2022-07-31T19:29:46.238Z,48.31
2022-07-31T19:32:12.932Z,48.51
2022-07-31T19:34:39.550Z,48.64
2022-07-31T19:37:09.827Z,48.91
2022-07-31T19:39:36.839Z,49.17
2022-07-31T19:42:12.026Z,49.02
2022-07-31T19:44:39.223Z,49.56
2022-07-31T19:47:06.307Z,49.75
2022-07-31T19:49:37.884Z,49.84
2022-07-31T19:52:05.994Z,50.09
2022-07-31T19:54:32.894Z,50.32
2022-07-31T19:56:59.436Z,50.21
2022-07-31T19:59:26.020Z,49.94
2022-07-31T20:01:52.557Z,50.30
2022-07-31T20:04:19.118Z,50.12
2022-07-31T20:06:45.664Z,50.04
2022-07-31T20:09:12.169Z,50.36
2022-07-31T20:11:39.311Z,50.19
2022-07-31T20:14:05.838Z,50.30
2022-07-31T20:16:32.871Z,50.26
2022-07-31T20:19:00.338Z,50.37
2022-07-31T20:21:27.436Z,50.04
2022-07-31T20:24:02.787Z,50.26
2022-07-31T20:26:31.375Z,50.38
2022-07-31T20:28:57.877Z,50.26
2022-07-31T20:31:24.422Z,50.42
2022-07-31T20:33:57.933Z,50.27
2022-07-31T20:36:26.310Z,50.28
2022-07-31T20:38:53.304Z,50.41
2022-07-31T20:41:20.065Z,50.67
2022-07-31T20:43:46.610Z,50.75
2022-07-31T20:46:13.208Z,50.88
2022-07-31T20:48:39.935Z,50.73
2022-07-31T20:51:08.998Z,51.18
2022-07-31T20:53:35.613Z,51.53
2022-07-31T20:56:02.148Z,51.51
2022-07-31T20:58:28.995Z,51.72
2022-07-31T21:00:55.833Z,51.91
2022-07-31T21:03:22.539Z,52.27
2022-07-31T21:05:49.888Z,52.27
2022-07-31T21:08:17.648Z,52.09
2022-07-31T21:10:44.799Z,52.06
2022-07-31T21:13:12.262Z,51.99
2022-07-31T21:15:43.707Z,51.11
2022-07-31T21:18:17.631Z,51.71
2022-07-31T21:20:51.874Z,51.83
2022-07-31T21:23:25.130Z,52.06
2022-07-31T21:25:53.773Z,52.68
2022-07-31T21:28:21.998Z,53.51
2022-07-31T21:30:49.131Z,53.92
2022-07-31T21:33:17.776Z,54.64
2022-07-31T21:35:45.753Z,55.16
2022-07-31T21:38:15.110Z,55.81
2022-07-31T21:40:43.175Z,55.92
2022-07-31T21:43:10.052Z,56.23
2022-07-31T21:45:50.964Z,57.11
2022-07-31T21:48:26.938Z,57.57
2022-07-31T21:50:55.038Z,57.74
2022-07-31T21:53:23.073Z,57.40
2022-07-31T21:55:50.061Z,57.66
2022-07-31T21:58:17.110Z,57.66
2022-07-31T22:00:44.477Z,58.23
2022-07-31T22:03:11.185Z,58.42
2022-07-31T22:05:56.404Z,58.69
2022-07-31T22:08:22.950Z,59.54
2022-07-31T22:10:51.592Z,60.78
2022-07-31T22:13:19.677Z,62.33
2022-07-31T22:15:59.371Z,62.86
2022-07-31T22:18:29.678Z,63.14
2022-07-31T22:20:57.766Z,63.44
2022-07-31T22:23:26.044Z,63.65
2022-07-31T22:25:53.134Z,64.02
2022-07-31T22:28:22.123Z,64.66
2022-07-31T22:30:50.782Z,64.84
2022-07-31T22:33:17.563Z,65.05
2022-07-31T22:35:44.238Z,65.13
2022-07-31T22:38:13.478Z,65.27
2022-07-31T22:40:40.405Z,66.15
2022-07-31T22:43:47.455Z,66.08
2022-07-31T22:45:59.764Z,68.11
2022-07-31T22:48:27.783Z,65.68
2022-07-31T22:50:55.767Z,66.16
2022-07-31T22:53:22.396Z,66.06
2022-07-31T22:55:49.000Z,66.14
2022-07-31T22:58:15.527Z,66.34
2022-07-31T23:00:42.922Z,66.33
2022-07-31T23:03:09.507Z,66.94
2022-07-31T23:06:02.549Z,67.62
2022-07-31T23:08:22.615Z,68.20
2022-07-31T23:10:49.218Z,68.46
2022-07-31T23:13:15.722Z,68.28
2022-07-31T23:15:42.340Z,68.13
2022-07-31T23:18:08.847Z,68.19
2022-07-31T23:20:35.352Z,68.23
2022-07-31T23:23:01.874Z,68.44
2022-07-31T23:25:28.371Z,68.58
2022-07-31T23:27:54.875Z,68.44
2022-07-31T23:30:21.595Z,68.36
2022-07-31T23:32:48.092Z,68.83
2022-07-31T23:35:14.979Z,68.62
2022-07-31T23:37:41.488Z,69.15
2022-07-31T23:40:08.698Z,69.25
2022-07-31T23:42:38.204Z,69.30
2022-07-31T23:45:11.568Z,69.31
2022-07-31T23:47:45.716Z,69.60
2022-07-31T23:50:15.004Z,69.52
2022-07-31T23:52:43.445Z,69.37
2022-07-31T23:55:10.471Z,69.50
2022-07-31T23:57:36.995Z,69.41
